Time;durP1;ratioP1;P1;durP2;ratioP2;P2;SDS_P1;SDS_P2;PMS_P1;PMS_P2;Temp;Humidity;BMP_temperature;BMP_pressure;BME280_temperature;BME280_humidity;BME280_pressure;Samples;Min_cycle;Max_cycle;Signal;HPM_P1;HPM_P2
2021/05/09 00:01:10;;;;;;;1999.90;999.90;;;;;;;9.13;57.39;98472.34;5041464;28;20053;-66
2021/05/09 00:03:37;;;;;;;1999.90;999.90;;;;;;;9.11;57.38;98469.09;5046486;28;20049;-66
2021/05/09 00:06:04;;;;;;;1999.90;999.90;;;;;;;9.32;57.70;98469.41;5045876;28;20136;-66
2021/05/09 00:08:30;;;;;;;1999.90;999.90;;;;;;;9.48;57.36;98469.00;5042169;28;20119;-66
2021/05/09 00:10:56;;;;;;;1999.90;999.90;;;;;;;9.38;57.17;98472.84;5043788;28;20110;-66
2021/05/09 00:13:22;;;;;;;1999.90;999.90;;;;;;;9.25;57.53;98469.00;5036056;28;20057;-66
2021/05/09 00:15:50;;;;;;;1999.90;999.90;;;;;;;9.05;58.38;98475.84;5042493;28;20057;-66
2021/05/09 00:18:16;;;;;;;1999.90;999.90;;;;;;;9.03;58.28;98472.56;5040097;28;20542;-66
2021/05/09 00:20:42;;;;;;;1999.90;999.90;;;;;;;9.11;57.73;98471.00;5046931;28;20083;-66
2021/05/09 00:23:08;;;;;;;1999.90;999.90;;;;;;;9.01;58.16;98474.84;5048568;28;20052;-66
2021/05/09 00:25:35;;;;;;;1999.90;999.90;;;;;;;9.03;58.20;98478.09;5043772;28;20059;-66
2021/05/09 00:28:01;;;;;;;1999.90;999.90;;;;;;;9.04;58.02;98468.69;5042835;28;20045;-66
2021/05/09 00:30:27;;;;;;;1999.90;999.90;;;;;;;8.94;58.94;98461.47;5043724;28;20469;-66
2021/05/09 00:32:53;;;;;;;1999.90;999.90;;;;;;;9.01;59.56;98462.97;5050816;28;20489;-66
2021/05/09 00:35:21;;;;;;;1999.90;999.90;;;;;;;8.77;59.68;98464.91;5049302;28;20109;-65
2021/05/09 00:37:47;;;;;;;1999.90;999.90;;;;;;;8.83;58.98;98451.81;5040415;28;20091;-66
2021/05/09 00:40:14;;;;;;;1999.90;999.90;;;;;;;8.79;58.82;98454.38;5035641;28;20045;-66
2021/05/09 00:42:41;;;;;;;1999.90;999.90;;;;;;;8.67;59.27;98458.81;5048207;28;20469;-67
2021/05/09 00:45:07;;;;;;;1999.90;999.90;;;;;;;8.50;59.46;98462.22;5042377;28;20445;-66
2021/05/09 00:47:34;;;;;;;1999.90;999.90;;;;;;;8.61;59.49;98456.16;5050975;28;20048;-66
2021/05/09 00:50:00;;;;;;;1999.90;999.90;;;;;;;8.74;60.14;98465.53;5047017;28;20509;-66
2021/05/09 00:52:29;;;;;;;1999.90;999.90;;;;;;;8.91;58.96;98464.06;5042736;28;20136;-66
2021/05/09 00:54:58;;;;;;;1999.90;999.90;;;;;;;8.82;59.20;98456.50;5048944;28;20049;-66
2021/05/09 00:57:25;;;;;;;1999.90;999.90;;;;;;;8.55;59.97;98457.41;5047061;28;20151;-66
2021/05/09 00:59:52;;;;;;;1999.90;999.90;;;;;;;8.67;59.71;98467.09;5039932;28;20045;-66
2021/05/09 01:02:19;;;;;;;1999.90;999.90;;;;;;;8.65;60.07;98467.41;5049433;28;20134;-65
2021/05/09 01:04:46;;;;;;;1999.90;999.90;;;;;;;8.73;59.61;98466.66;5045792;28;20144;-65
2021/05/09 01:07:17;;;;;;;1999.90;999.90;;;;;;;8.66;59.45;98455.22;5037399;28;20052;-66
2021/05/09 01:09:43;;;;;;;1999.90;999.90;;;;;;;8.50;59.95;98453.94;5046580;28;20565;-66
2021/05/09 01:12:11;;;;;;;1999.90;999.90;;;;;;;8.49;60.25;98452.34;5040749;28;20045;-66
2021/05/09 01:14:38;;;;;;;1999.90;999.90;;;;;;;8.44;60.04;98445.81;5052199;28;20048;-65
2021/05/09 01:17:08;;;;;;;1999.90;999.90;;;;;;;8.39;60.38;98443.13;5044625;28;20060;-66
2021/05/09 01:19:36;;;;;;;1999.90;999.90;;;;;;;8.26;60.35;98439.28;5045502;28;20072;-65
2021/05/09 01:22:10;;;;;;;1999.90;999.90;;;;;;;8.39;60.25;98443.13;5040561;28;20347;-66
2021/05/09 01:24:37;;;;;;;1999.90;999.90;;;;;;;8.40;60.85;98439.25;5047530;28;20048;-66
2021/05/09 01:27:04;;;;;;;1999.90;999.90;;;;;;;8.45;60.40;98446.63;5039690;28;20053;-66
2021/05/09 01:29:32;;;;;;;1999.90;999.90;;;;;;;8.20;60.93;98440.50;5043019;28;20107;-66
2021/05/09 01:31:58;;;;;;;1999.90;999.90;;;;;;;8.29;60.77;98433.16;5044618;28;20531;-66
2021/05/09 01:34:31;;;;;;;1999.90;999.90;;;;;;;8.45;60.27;98435.59;5047666;28;20413;-66
2021/05/09 01:36:58;;;;;;;1999.90;999.90;;;;;;;8.20;61.31;98440.50;5048068;28;20376;-66
2021/05/09 01:39:24;;;;;;;1999.90;999.90;;;;;;;8.49;60.98;98436.59;5051572;28;20102;-66
2021/05/09 01:41:50;;;;;;;1999.90;999.90;;;;;;;8.45;60.77;98436.38;5039659;28;20110;-66
2021/05/09 01:44:16;;;;;;;1999.90;999.90;;;;;;;8.45;60.79;98441.09;5043197;28;20057;-65
2021/05/09 01:46:42;;;;;;;1999.90;999.90;;;;;;;8.50;60.83;98431.91;5041200;28;20504;-66
2021/05/09 01:49:08;;;;;;;1999.90;999.90;;;;;;;8.57;60.92;98435.06;5049707;28;20465;-66
2021/05/09 01:51:34;;;;;;;1999.90;999.90;;;;;;;8.61;61.01;98433.31;5048307;28;20046;-66
2021/05/09 01:54:00;;;;;;;1999.90;999.90;;;;;;;8.44;61.05;98422.91;5047359;28;20075;-66
2021/05/09 01:56:26;;;;;;;1999.90;999.90;;;;;;;8.44;60.91;98423.75;5037736;28;20504;-66
2021/05/09 01:58:53;;;;;;;1999.90;999.90;;;;;;;8.45;61.88;98428.13;5045827;28;20041;-66
2021/05/09 02:01:19;;;;;;;1999.90;999.90;;;;;;;8.25;61.34;98423.06;5041057;28;20075;-66
2021/05/09 02:03:45;;;;;;;1999.90;999.90;;;;;;;8.34;61.41;98423.94;5046213;28;20053;-66
2021/05/09 02:06:12;;;;;;;1999.90;999.90;;;;;;;8.43;61.28;98433.09;5040245;28;20057;-66
2021/05/09 02:08:38;;;;;;;1999.90;999.90;;;;;;;8.39;61.48;98431.28;5048869;28;20045;-66
2021/05/09 02:11:05;;;;;;;1999.90;999.90;;;;;;;8.51;61.03;98417.81;5046176;28;20095;-66
2021/05/09 02:13:31;;;;;;;1999.90;999.90;;;;;;;8.51;60.89;98422.50;5036986;28;20052;-66
2021/05/09 02:15:57;;;;;;;1999.90;999.90;;;;;;;8.49;61.26;98420.06;5042105;28;20394;-66
2021/05/09 02:18:23;;;;;;;1999.90;999.90;;;;;;;8.59;61.14;98419.00;5038716;28;20503;-66
2021/05/09 02:20:49;;;;;;;1999.90;999.90;;;;;;;8.48;60.80;98423.94;5032611;28;20405;-65
2021/05/09 02:23:16;;;;;;;1999.90;999.90;;;;;;;8.42;61.03;98412.19;5046809;28;20049;-66
2021/05/09 02:25:42;;;;;;;1999.90;999.90;;;;;;;8.69;60.62;98424.28;5040935;28;20053;-66
2021/05/09 02:28:08;;;;;;;1999.90;999.90;;;;;;;8.50;60.88;98412.59;5047689;28;20412;-66
2021/05/09 02:30:34;;;;;;;1999.90;999.90;;;;;;;8.51;60.90;98414.25;5044953;28;20045;-66
2021/05/09 02:33:00;;;;;;;1999.90;999.90;;;;;;;8.49;60.86;98419.25;5043568;28;20102;-66
2021/05/09 02:35:26;;;;;;;1999.90;999.90;;;;;;;8.72;60.80;98415.38;5044991;28;20045;-66
2021/05/09 02:37:52;;;;;;;1999.90;999.90;;;;;;;8.70;60.58;98420.41;5047560;28;20052;-66
2021/05/09 02:40:18;;;;;;;1999.90;999.90;;;;;;;8.75;60.60;98412.03;5043603;28;20060;-66
2021/05/09 02:42:46;;;;;;;1999.90;999.90;;;;;;;8.84;59.82;98414.03;5040082;28;20096;-66
2021/05/09 02:45:13;;;;;;;1999.90;999.90;;;;;;;9.03;59.57;98419.38;5048472;28;20095;-66
2021/05/09 02:47:39;;;;;;;1999.90;999.90;;;;;;;9.05;59.90;98412.41;5045751;28;20060;-66
2021/05/09 02:50:08;;;;;;;1999.90;999.90;;;;;;;9.01;59.90;98424.38;5021771;28;20056;-66
2021/05/09 02:52:34;;;;;;;1999.90;999.90;;;;;;;8.95;61.64;98420.94;5048269;28;20052;-66
2021/05/09 02:55:01;;;;;;;1999.90;999.90;;;;;;;8.92;61.92;98422.38;5025369;28;20099;-66
2021/05/09 02:57:27;;;;;;;1999.90;999.90;;;;;;;8.78;62.98;98425.19;5036549;28;20053;-66
2021/05/09 02:59:53;;;;;;;1999.90;999.90;;;;;;;8.75;63.49;98430.50;5047394;28;20110;-66
2021/05/09 03:02:19;;;;;;;1999.90;999.90;;;;;;;8.72;63.48;98429.16;5045970;28;20052;-66
2021/05/09 03:04:45;;;;;;;1999.90;999.90;;;;;;;8.45;64.12;98439.16;5041344;28;20041;-66
2021/05/09 03:07:12;;;;;;;1999.90;999.90;;;;;;;8.34;64.80;98436.91;5044455;28;20049;-66
2021/05/09 03:09:38;;;;;;;1999.90;999.90;;;;;;;8.27;65.25;98451.09;5042915;28;20045;-65
2021/05/09 03:12:05;;;;;;;1999.90;999.90;;;;;;;8.11;66.00;98447.84;5040775;28;20060;-66
2021/05/09 03:14:31;;;;;;;1999.90;999.90;;;;;;;7.74;67.04;98452.41;5038441;28;20058;-64
2021/05/09 03:16:57;;;;;;;1999.90;999.90;;;;;;;7.46;66.52;98446.06;5038523;28;20140;-64
2021/05/09 03:19:23;;;;;;;1999.90;999.90;;;;;;;7.76;66.72;98442.75;5036239;28;20045;-64
2021/05/09 03:21:49;;;;;;;1999.90;999.90;;;;;;;8.01;67.06;98443.38;5042637;28;20484;-64
2021/05/09 03:24:15;;;;;;;1999.90;999.90;;;;;;;7.85;66.90;98439.28;5047945;28;20500;-66
2021/05/09 03:26:41;;;;;;;1999.90;999.90;;;;;;;7.77;67.04;98449.09;5045289;28;20364;-65
2021/05/09 03:29:07;;;;;;;1999.90;999.90;;;;;;;7.91;67.14;98433.38;5039466;28;20489;-65
2021/05/09 03:31:34;;;;;;;1999.90;999.90;;;;;;;7.84;66.34;98451.41;5048580;28;20053;-65
2021/05/09 03:34:01;;;;;;;1999.90;999.90;;;;;;;8.18;65.42;98455.72;5045601;28;20055;-65
2021/05/09 03:36:28;;;;;;;1999.90;999.90;;;;;;;8.41;64.63;98451.91;5037781;28;20479;-66
2021/05/09 03:38:54;;;;;;;1999.90;999.90;;;;;;;8.62;63.76;98454.25;5046044;28;20045;-66
2021/05/09 03:41:22;;;;;;;1999.90;999.90;;;;;;;8.62;63.40;98454.25;5040892;28;20060;-65
2021/05/09 03:43:49;;;;;;;1999.90;999.90;;;;;;;8.71;62.77;98444.09;5035863;28;20801;-65
2021/05/09 03:46:16;;;;;;;1999.90;999.90;;;;;;;8.91;62.77;98448.31;5047228;28;20045;-67
2021/05/09 03:48:42;;;;;;;1999.90;999.90;;;;;;;9.05;61.32;98444.69;5044275;28;20049;-66
2021/05/09 03:51:08;;;;;;;1999.90;999.90;;;;;;;9.22;61.08;98447.56;5049412;28;20048;-66
2021/05/09 03:53:34;;;;;;;1999.90;999.90;;;;;;;9.14;61.36;98446.38;5045189;28;20098;-66
2021/05/09 03:56:00;;;;;;;1999.90;999.90;;;;;;;9.33;60.64;98443.44;5037393;28;20482;-64
2021/05/09 03:58:26;;;;;;;1999.90;999.90;;;;;;;9.49;59.95;98446.59;5046606;28;20048;-64
2021/05/09 04:00:53;;;;;;;1999.90;999.90;;;;;;;9.47;59.53;98448.88;5048792;28;20055;-64
2021/05/09 04:03:19;;;;;;;1999.90;999.90;;;;;;;9.43;59.70;98447.84;5036365;28;20072;-65
2021/05/09 04:05:47;;;;;;;1999.90;999.90;;;;;;;9.61;59.38;98453.47;5050567;28;20045;-64
2021/05/09 04:08:13;;;;;;;1999.90;999.90;;;;;;;10.01;58.99;98457.06;5049577;28;20057;-64
2021/05/09 04:10:39;;;;;;;1999.90;999.90;;;;;;;10.44;58.29;98458.38;5034666;28;20041;-65
2021/05/09 04:13:05;;;;;;;1999.90;999.90;;;;;;;10.77;57.01;98460.69;5022743;28;20095;-65
2021/05/09 04:15:31;;;;;;;1999.90;999.90;;;;;;;11.38;56.72;98451.53;5041972;28;20052;-64
2021/05/09 04:17:57;;;;;;;1999.90;999.90;;;;;;;11.76;55.30;98462.69;5044118;28;20053;-65
2021/05/09 04:20:23;;;;;;;1999.90;999.90;;;;;;;12.10;53.47;98451.81;5047324;28;20561;-64
2021/05/09 04:22:49;;;;;;;1999.90;999.90;;;;;;;12.37;53.03;98458.03;5039152;28;20133;-64
2021/05/09 04:25:15;;;;;;;1999.90;999.90;;;;;;;12.55;51.54;98454.03;5043231;28;20045;-65
2021/05/09 04:27:41;;;;;;;1999.90;999.90;;;;;;;12.68;51.99;98452.13;5041483;28;20049;-65
2021/05/09 04:30:08;;;;;;;1999.90;999.90;;;;;;;13.21;51.79;98446.97;5049878;28;20382;-65
2021/05/09 04:32:34;;;;;;;1999.90;999.90;;;;;;;13.39;49.47;98447.66;5048295;28;20055;-65
2021/05/09 04:35:00;;;;;;;1999.90;999.90;;;;;;;13.29;49.63;98448.84;5038482;28;20139;-66
2021/05/09 04:37:26;;;;;;;1999.90;999.90;;;;;;;13.37;48.72;98449.97;5021799;28;20049;-65
2021/05/09 04:39:52;;;;;;;1999.90;999.90;;;;;;;13.73;48.84;98452.03;5045535;28;20094;-65
2021/05/09 04:42:18;;;;;;;1999.90;999.90;;;;;;;13.97;48.21;98456.00;5044204;28;20045;-65
2021/05/09 04:44:44;;;;;;;1999.90;999.90;;;;;;;13.96;47.22;98453.56;5042646;28;20054;-65
2021/05/09 04:47:10;;;;;;;1999.90;999.90;;;;;;;13.98;47.11;98454.84;5039522;28;20583;-65
2021/05/09 04:49:36;;;;;;;1999.90;999.90;;;;;;;13.68;47.44;98460.59;5052629;28;20140;-64
2021/05/09 04:52:02;;;;;;;1999.90;999.90;;;;;;;13.73;46.99;98452.03;5046790;28;20053;-65
2021/05/09 04:54:28;;;;;;;1999.90;999.90;;;;;;;14.04;46.76;98459.03;5041127;28;20451;-65
2021/05/09 04:56:54;;;;;;;1999.90;999.90;;;;;;;13.99;47.15;98459.25;5044360;28;20099;-65
2021/05/09 04:59:21;;;;;;;1999.90;999.90;;;;;;;14.27;46.29;98456.59;5046818;28;20044;-65
2021/05/09 05:01:47;;;;;;;1999.90;999.90;;;;;;;14.37;46.07;98465.66;5049661;28;20458;-67
2021/05/09 05:04:13;;;;;;;1999.90;999.90;;;;;;;13.78;47.41;98458.53;5047326;28;20444;-65
2021/05/09 05:06:39;;;;;;;1999.90;999.90;;;;;;;13.83;47.04;98466.63;5039586;28;20068;-65
2021/05/09 05:09:06;;;;;;;1999.90;999.90;;;;;;;13.88;47.21;98458.09;5045675;28;20070;-64
2021/05/09 05:11:32;;;;;;;1999.90;999.90;;;;;;;14.17;46.67;98461.81;5045821;28;20837;-64
2021/05/09 05:13:58;;;;;;;1999.90;999.90;;;;;;;14.00;47.28;98457.28;5038586;28;20041;-65
2021/05/09 05:16:24;;;;;;;1999.90;999.90;;;;;;;14.16;46.37;98452.66;5047958;28;20492;-65
2021/05/09 05:18:50;;;;;;;1999.90;999.90;;;;;;;14.07;47.49;98443.63;5047178;28;20041;-65
2021/05/09 05:21:16;;;;;;;1999.90;999.90;;;;;;;14.47;46.43;98439.31;5032616;28;20041;-65
2021/05/09 05:23:42;;;;;;;1999.90;999.90;;;;;;;13.93;47.21;98449.50;5046931;28;20045;-65
2021/05/09 05:26:08;;;;;;;1999.90;999.90;;;;;;;13.42;48.55;98437.84;5047362;28;20052;-65
2021/05/09 05:28:34;;;;;;;1999.90;999.90;;;;;;;13.80;48.72;98436.75;5044833;28;20071;-65
2021/05/09 05:31:00;;;;;;;1999.90;999.90;;;;;;;13.74;48.06;98433.41;5046302;28;20079;-65
2021/05/09 05:33:32;;;;;;;1999.90;999.90;;;;;;;13.99;48.63;98437.00;5049516;28;20068;-65
2021/05/09 05:35:59;;;;;;;1999.90;999.90;;;;;;;14.34;47.20;98432.97;5049684;28;20048;-65
2021/05/09 05:38:26;;;;;;;1999.90;999.90;;;;;;;14.72;45.64;98437.34;5048975;28;20045;-65
2021/05/09 05:40:55;;;;;;;1999.90;999.90;;;;;;;14.67;45.84;98443.97;5047336;28;20068;-65
2021/05/09 05:43:29;;;;;;;1999.90;999.90;;;;;;;14.55;46.11;98452.31;5032865;28;20056;-65
2021/05/09 05:45:57;;;;;;;1999.90;999.90;;;;;;;14.48;46.40;98452.88;5045730;28;20056;-65
2021/05/09 05:48:24;;;;;;;1999.90;999.90;;;;;;;14.74;46.27;98452.53;5021588;28;20083;-66
2021/05/09 05:50:51;;;;;;;1999.90;999.90;;;;;;;14.59;46.62;98453.22;5015059;28;20543;-65
2021/05/09 05:53:22;;;;;;;1999.90;999.90;;;;;;;14.21;46.96;98454.41;5045978;28;20045;-65
2021/05/09 05:55:50;;;;;;;1999.90;999.90;;;;;;;13.77;48.23;98452.16;5038156;28;20049;-65
2021/05/09 05:58:17;;;;;;;1999.90;999.90;;;;;;;13.37;49.00;98455.53;5046894;28;20053;-65
2021/05/09 06:00:44;;;;;;;1999.90;999.90;;;;;;;13.07;50.14;98454.78;5046732;28;20072;-65
2021/05/09 06:03:11;;;;;;;1999.90;999.90;;;;;;;13.69;48.23;98445.53;5041339;28;20045;-65
2021/05/09 06:05:37;;;;;;;1999.90;999.90;;;;;;;14.55;48.30;98446.75;5047111;28;20053;-65
2021/05/09 06:08:05;;;;;;;1999.90;999.90;;;;;;;15.48;46.53;98448.66;5046985;28;20472;-65
2021/05/09 06:10:31;;;;;;;1999.90;999.90;;;;;;;15.37;45.75;98448.38;5035601;28;20044;-65
2021/05/09 06:12:57;;;;;;;1999.90;999.90;;;;;;;15.16;44.74;98450.56;5039215;28;20080;-65
2021/05/09 06:15:24;;;;;;;1999.90;999.90;;;;;;;15.00;44.96;98451.28;5038556;28;20054;-65
2021/05/09 06:17:50;;;;;;;1999.90;999.90;;;;;;;15.16;44.98;98447.78;5044111;28;20059;-65
2021/05/09 06:20:17;;;;;;;1999.90;999.90;;;;;;;15.44;44.60;98454.16;5041762;28;20504;-65
2021/05/09 06:22:43;;;;;;;1999.90;999.90;;;;;;;15.40;44.82;98458.81;5038644;28;20045;-65
2021/05/09 06:25:10;;;;;;;1999.90;999.90;;;;;;;15.49;44.97;98455.88;5042819;28;20056;-65
2021/05/09 06:27:36;;;;;;;1999.90;999.90;;;;;;;15.69;43.83;98448.47;5048682;28;20151;-65
2021/05/09 06:30:05;;;;;;;1999.90;999.90;;;;;;;14.85;45.36;98452.03;5040371;28;20052;-65
2021/05/09 06:32:31;;;;;;;1999.90;999.90;;;;;;;15.31;44.31;98449.81;5043807;28;20053;-65
2021/05/09 06:34:59;;;;;;;1999.90;999.90;;;;;;;15.74;43.25;98450.97;5042650;28;20048;-65
2021/05/09 06:37:26;;;;;;;1999.90;999.90;;;;;;;16.25;42.61;98457.84;5047905;28;20053;-66
2021/05/09 06:39:53;;;;;;;1999.90;999.90;;;;;;;15.84;41.93;98452.47;5037112;28;20497;-66
2021/05/09 06:42:19;;;;;;;1999.90;999.90;;;;;;;16.00;42.88;98452.44;5046093;28;20053;-65
2021/05/09 06:44:50;;;;;;;1999.90;999.90;;;;;;;15.78;42.38;98451.91;5041888;28;20720;-65
2021/05/09 06:47:16;;;;;;;1999.90;999.90;;;;;;;16.49;41.81;98454.84;5044770;28;20172;-65
2021/05/09 06:49:42;;;;;;;1999.90;999.90;;;;;;;16.62;41.48;98438.00;5051358;28;20480;-65
2021/05/09 06:52:08;;;;;;;1999.90;999.90;;;;;;;16.61;40.78;98447.53;5036101;28;20568;-64
2021/05/09 06:54:35;;;;;;;1999.90;999.90;;;;;;;16.67;41.12;98448.88;5046539;28;20098;-65
2021/05/09 06:57:03;;;;;;;1999.90;999.90;;;;;;;16.70;41.80;98445.34;5048534;28;20769;-65
2021/05/09 06:59:30;;;;;;;1999.90;999.90;;;;;;;16.81;40.46;98446.41;5021214;28;20512;-65
2021/05/09 07:01:57;;;;;;;1999.90;999.90;;;;;;;16.32;41.06;98446.88;5039242;28;20041;-65
2021/05/09 07:04:23;;;;;;;1999.90;999.90;;;;;;;17.01;41.24;98432.50;5036060;28;20286;-66
2021/05/09 07:06:49;;;;;;;1999.90;999.90;;;;;;;17.07;40.22;98431.00;5044553;28;20054;-64
2021/05/09 07:09:15;;;;;;;1999.90;999.90;;;;;;;17.14;41.69;98427.56;5043158;28;20110;-65
2021/05/09 07:11:41;;;;;;;1999.90;999.90;;;;;;;17.44;41.25;98424.97;5035152;28;20048;-66
2021/05/09 07:14:07;;;;;;;1999.90;999.90;;;;;;;17.25;40.27;98426.63;5046674;28;20415;-65
2021/05/09 07:16:36;;;;;;;1999.90;999.90;;;;;;;16.18;42.13;98437.00;5040935;28;20128;-64
2021/05/09 07:19:05;;;;;;;1999.90;999.90;;;;;;;16.24;43.10;98431.13;5031442;28;20126;-65
2021/05/09 07:21:44;;;;;;;1999.90;999.90;;;;;;;16.57;42.53;98430.72;5046851;28;20493;-65
2021/05/09 07:24:10;;;;;;;1999.90;999.90;;;;;;;16.60;42.93;98434.75;5040306;28;20061;-64
2021/05/09 07:26:36;;;;;;;1999.90;999.90;;;;;;;16.85;42.21;98430.53;5027894;28;20092;-65
2021/05/09 07:29:03;;;;;;;1999.90;999.90;;;;;;;17.16;42.19;98428.00;5048836;28;20040;-66
2021/05/09 07:31:31;;;;;;;1999.90;999.90;;;;;;;17.05;41.48;98433.38;5058731;28;20119;-65
2021/05/09 07:34:00;;;;;;;1999.90;999.90;;;;;;;17.29;41.54;98420.28;5044942;28;20511;-65
2021/05/09 07:36:26;;;;;;;1999.90;999.90;;;;;;;17.10;43.33;98427.47;5049197;28;20057;-65
2021/05/09 07:38:52;;;;;;;1999.90;999.90;;;;;;;17.45;43.15;98417.38;5060889;28;20048;-65
2021/05/09 07:41:18;;;;;;;1999.90;999.90;;;;;;;18.25;41.04;98426.84;5044465;28;20405;-64
2021/05/09 07:43:46;;;;;;;1999.90;999.90;;;;;;;17.55;41.44;98420.41;5045253;28;20065;-65
2021/05/09 07:46:12;;;;;;;1999.90;999.90;;;;;;;17.82;40.86;98423.28;5047633;28;20045;-65
2021/05/09 07:48:38;;;;;;;1999.90;999.90;;;;;;;18.37;41.73;98425.00;5043147;28;20055;-64
2021/05/09 07:51:05;;;;;;;1999.90;999.90;;;;;;;18.92;39.90;98419.00;5042924;28;20051;-66
2021/05/09 07:53:31;;;;;;;1999.90;999.90;;;;;;;19.07;38.97;98425.59;5045625;28;20041;-66
2021/05/09 07:55:59;;;;;;;1999.90;999.90;;;;;;;18.13;39.70;98429.81;5051423;28;20128;-66
2021/05/09 07:58:25;;;;;;;1999.90;999.90;;;;;;;17.50;41.69;98429.06;5050676;28;20057;-66
2021/05/09 08:00:51;;;;;;;1999.90;999.90;;;;;;;18.16;40.96;98434.66;5044582;28;20053;-66
2021/05/09 08:03:19;;;;;;;1999.90;999.90;;;;;;;18.76;39.45;98427.59;5048739;28;20095;-66
2021/05/09 08:05:45;;;;;;;1999.90;999.90;;;;;;;19.43;39.70;98428.84;5040700;28;20094;-64
2021/05/09 08:08:12;;;;;;;1999.90;999.90;;;;;;;18.99;39.04;98414.31;5041177;28;20057;-65
2021/05/09 08:10:41;;;;;;;1999.90;999.90;;;;;;;18.33;40.89;98424.16;5040895;28;20044;-64
2021/05/09 08:13:10;;;;;;;1999.90;999.90;;;;;;;18.14;41.34;98425.84;5051222;28;20041;-65
2021/05/09 08:15:36;;;;;;;1999.90;999.90;;;;;;;19.02;39.10;98423.94;5050790;28;20053;-65
2021/05/09 08:18:03;;;;;;;1999.90;999.90;;;;;;;19.56;39.61;98415.34;5045162;28;20049;-65
2021/05/09 08:20:30;;;;;;;1999.90;999.90;;;;;;;20.02;37.22;98418.66;5038447;28;20048;-65
2021/05/09 08:22:56;;;;;;;1999.90;999.90;;;;;;;20.47;37.63;98426.19;5049624;28;20053;-65
2021/05/09 08:25:22;;;;;;;1999.90;999.90;;;;;;;20.56;38.43;98426.69;5040969;28;20053;-64
2021/05/09 08:27:50;;;;;;;1999.90;999.90;;;;;;;20.66;36.85;98422.34;5041787;28;20049;-65
2021/05/09 08:30:21;;;;;;;1999.90;999.90;;;;;;;20.21;37.51;98431.63;5044691;28;20041;-65
2021/05/09 08:32:48;;;;;;;1999.90;999.90;;;;;;;19.43;38.55;98424.03;5041083;28;20357;-64
2021/05/09 08:35:14;;;;;;;1999.90;999.90;;;;;;;19.64;38.98;98426.28;5045380;28;20138;-65
2021/05/09 08:37:42;;;;;;;1999.90;999.90;;;;;;;19.53;41.27;98422.53;5041333;28;20451;-65
2021/05/09 08:40:10;;;;;;;1999.90;999.90;;;;;;;19.53;39.59;98428.16;5031824;28;20563;-65
2021/05/09 08:42:36;;;;;;;1999.90;999.90;;;;;;;19.21;39.17;98425.78;5045495;28;20056;-65
2021/05/09 08:45:03;;;;;;;1999.90;999.90;;;;;;;19.53;40.51;98425.34;5038387;28;20071;-65
2021/05/09 08:47:37;;;;;;;1999.90;999.90;;;;;;;19.58;38.85;98422.19;5046876;28;20056;-65
2021/05/09 08:50:13;;;;;;;1999.90;999.90;;;;;;;19.96;39.16;98425.00;5043733;28;20424;-65
2021/05/09 08:52:42;;;;;;;1999.90;999.90;;;;;;;20.30;38.46;98422.06;5036048;28;20052;-65
2021/05/09 08:55:11;;;;;;;1999.90;999.90;;;;;;;19.52;38.76;98415.34;5041781;28;20509;-65
2021/05/09 08:57:41;;;;;;;1999.90;999.90;;;;;;;19.66;39.11;98417.47;5043696;28;20057;-65
2021/05/09 09:00:09;;;;;;;1999.90;999.90;;;;;;;19.79;37.80;98418.03;5033367;28;20045;-65
2021/05/09 09:02:53;;;;;;;1999.90;999.90;;;;;;;20.48;37.54;98410.97;5045879;28;20056;-65
2021/05/09 09:05:42;;;;;;;1999.90;999.90;;;;;;;20.56;36.86;98407.03;5039524;28;20047;-65
2021/05/09 09:08:10;;;;;;;1999.90;999.90;;;;;;;20.09;37.65;98411.50;5040026;28;20519;-65
2021/05/09 09:10:37;;;;;;;1999.90;999.90;;;;;;;19.93;38.17;98406.94;5044089;28;20480;-64
2021/05/09 09:13:31;;;;;;;1999.90;999.90;;;;;;;20.09;38.42;98406.66;5034564;28;20059;-65
2021/05/09 09:15:59;;;;;;;1999.90;999.90;;;;;;;20.02;37.58;98396.22;5031700;28;20064;-66
2021/05/09 09:18:32;;;;;;;1999.90;999.90;;;;;;;21.01;37.76;98399.25;5041631;28;20052;-65
2021/05/09 09:21:18;;;;;;;;;;;;;;;21.50;35.87;98391.44;5036142;28;20393;-65
2021/05/09 09:23:46;;;;;;;1999.90;999.90;;;;;;;21.76;35.61;98398.69;5034705;28;20331;-65
2021/05/09 09:26:29;;;;;;;1999.90;999.90;;;;;;;21.10;35.96;98396.88;5043145;28;20118;-65
2021/05/09 09:28:56;;;;;;;1999.90;999.90;;;;;;;21.28;35.75;98396.16;5041498;28;20094;-65
2021/05/09 09:31:40;;;;;;;1999.90;999.90;;;;;;;21.30;36.03;98385.31;5046105;28;20504;-65
2021/05/09 09:34:07;;;;;;;1999.90;999.90;;;;;;;22.14;35.20;98382.25;5046937;28;20107;-66
2021/05/09 09:36:34;;;;;;;1999.90;999.90;;;;;;;22.59;34.41;98381.81;5046189;28;20163;-65
2021/05/09 09:39:00;;;;;;;1999.90;999.90;;;;;;;21.95;34.37;98377.00;5021203;28;20122;-65
2021/05/09 09:41:27;;;;;;;1999.90;999.90;;;;;;;21.33;37.60;98380.91;5043582;28;20056;-65
2021/05/09 09:44:11;;;;;;;1999.90;999.90;;;;;;;21.41;36.42;98371.28;5042678;28;20080;-65
2021/05/09 09:46:42;;;;;;;1999.90;999.90;;;;;;;21.14;36.13;98373.59;5040873;28;20497;-67
2021/05/09 09:49:32;;;;;;;1999.90;999.90;;;;;;;21.04;36.06;98381.59;5043538;28;20049;-65
2021/05/09 09:52:05;;;;;;;;;;;;;;;21.08;35.98;98382.44;5034681;28;20063;-66
2021/05/09 09:54:42;;;;;;;1999.90;999.90;;;;;;;21.49;35.07;98383.34;5047278;28;19924;-66
2021/05/09 09:57:20;;;;;;;1999.90;999.90;;;;;;;22.13;35.62;98377.00;5043506;28;20451;-65
2021/05/09 10:00:13;;;;;;;1999.90;999.90;;;;;;;21.95;35.02;98371.38;5036611;28;20060;-64
2021/05/09 10:02:42;;;;;;;1999.90;999.90;;;;;;;21.53;35.09;98362.50;5043602;28;20053;-65
2021/05/09 10:05:11;;;;;;;1999.90;999.90;;;;;;;21.91;36.26;98368.59;5042035;28;20358;-64
2021/05/09 10:07:37;;;;;;;1999.90;999.90;;;;;;;21.59;35.14;98366.53;5033821;28;20106;-64
2021/05/09 10:10:04;;;;;;;1999.90;999.90;;;;;;;21.23;36.89;98371.25;5045180;28;20044;-64
2021/05/09 10:12:30;;;;;;;1999.90;999.90;;;;;;;21.49;36.26;98370.09;5045756;28;20067;-64
2021/05/09 10:14:57;;;;;;;1999.90;999.90;;;;;;;21.20;36.86;98372.00;5037653;28;20446;-64
2021/05/09 10:17:24;;;;;;;1999.90;999.90;;;;;;;21.40;37.08;98369.69;5046512;28;20507;-65
2021/05/09 10:19:52;;;;;;;1999.90;999.90;;;;;;;22.08;35.12;98371.78;5040991;28;20045;-64
2021/05/09 10:22:34;;;;;;;1999.90;999.90;;;;;;;23.03;34.29;98360.72;5039568;28;20048;-64
2021/05/09 10:25:02;;;;;;;1999.90;999.90;;;;;;;22.33;35.88;98374.63;5037670;28;20061;-64
2021/05/09 10:27:36;;;;;;;1999.90;999.90;;;;;;;21.95;34.58;98382.66;5040809;28;20055;-64
2021/05/09 10:30:05;;;;;;;1999.90;999.90;;;;;;;22.53;33.91;98383.44;5039745;28;20051;-64
2021/05/09 10:32:35;;;;;;;1999.90;999.90;;;;;;;22.32;34.55;98373.00;5043017;28;20471;-65
2021/05/09 10:35:07;;;;;;;1999.90;999.90;;;;;;;21.90;34.96;98383.84;5044832;28;20056;-64
2021/05/09 10:40:35;;;;;;;1999.90;999.90;;;;;;;22.49;34.11;98389.09;5040371;28;20041;-65
2021/05/09 10:43:02;;;;;;;1999.90;999.90;;;;;;;22.72;33.90;98389.81;5040259;28;20053;-65
2021/05/09 10:45:38;;;;;;;1999.90;999.90;;;;;;;22.58;33.75;98385.03;5044643;28;20056;-64
2021/05/09 10:48:18;;;;;;;1999.90;999.90;;;;;;;22.08;35.01;98388.69;5042996;28;20052;-64
2021/05/09 10:50:49;;;;;;;1999.90;999.90;;;;;;;23.18;32.35;98378.41;5039016;28;20056;-65
2021/05/09 10:53:30;;;;;;;1999.90;999.90;;;;;;;23.54;33.18;98383.84;5035120;28;20041;-65
2021/05/09 10:55:58;;;;;;;1999.90;999.90;;;;;;;23.78;32.18;98383.31;5038768;28;20511;-65
2021/05/09 10:58:57;;;;;;;1999.90;999.90;;;;;;;22.90;33.83;98378.50;5035724;28;20049;-64
2021/05/09 11:01:25;;;;;;;1999.90;999.90;;;;;;;22.17;33.42;98372.97;5001486;28;20061;-64
2021/05/09 11:03:56;;;;;;;1999.90;999.90;;;;;;;22.61;34.20;98364.47;5040572;28;20592;-64